Time;durP1;ratioP1;P1;durP2;ratioP2;P2;SDS_P1;SDS_P2;PMS_P1;PMS_P2;Temp;Humidity;BMP_temperature;BMP_pressure;BME280_temperature;BME280_humidity;BME280_pressure;Samples;Min_cycle;Max_cycle;Signal;HPM_P1;HPM_P2
2023/09/08 00:00:51;;;;;;;11.07;8.52;;;21.10;60.30;;;22.56;47.26;97834.72;5020612;28;20111;-60
2023/09/08 00:03:18;;;;;;;9.60;7.13;;;21.10;60.70;;;22.51;47.13;97840.88;5020983;28;20049;-60
2023/09/08 00:05:46;;;;;;;7.95;6.40;;;20.90;61.00;;;22.49;47.14;97840.28;5019020;28;20050;-60
2023/09/08 00:08:13;;;;;;;9.30;6.72;;;20.80;61.30;;;22.41;46.99;97836.00;5018338;28;20054;-60
2023/09/08 00:10:41;;;;;;;7.88;6.13;;;20.80;61.20;;;22.39;47.12;97840.84;5020064;28;20057;-60
2023/09/08 00:13:09;;;;;;;6.40;5.80;;;20.80;60.90;;;22.40;46.78;97837.06;5021300;28;20058;-60
2023/09/08 00:15:37;;;;;;;7.57;5.97;;;20.80;60.50;;;22.42;46.80;97836.84;5020187;28;20037;-60
2023/09/08 00:18:04;;;;;;;7.07;6.28;;;20.80;60.20;;;22.42;46.50;97832.22;5017054;28;20042;-60
2023/09/08 00:20:32;;;;;;;6.32;5.50;;;20.80;59.80;;;22.45;46.65;97832.81;5018770;28;20053;-60
2023/09/08 00:23:00;;;;;;;6.60;5.40;;;20.80;59.60;;;22.46;46.46;97835.31;5021214;28;20049;-61
2023/09/08 00:25:27;;;;;;;7.35;5.05;;;20.90;59.40;;;22.47;46.13;97833.41;5021522;28;20060;-60
2023/09/08 00:27:55;;;;;;;7.15;5.45;;;20.90;59.40;;;22.45;46.43;97838.25;5017304;28;20050;-60
2023/09/08 00:30:23;;;;;;;8.00;5.88;;;20.80;59.50;;;22.40;46.44;97837.06;5025331;28;20061;-60
2023/09/08 00:32:50;;;;;;;6.97;5.28;;;20.70;59.70;;;22.40;46.07;97841.66;5015989;28;20046;-60
2023/09/08 00:35:18;;;;;;;5.95;5.03;;;20.70;59.50;;;22.36;46.02;97835.06;5021373;28;20049;-60
2023/09/08 00:37:46;;;;;;;7.50;5.45;;;20.80;59.50;;;22.36;46.33;97838.59;5003430;28;20053;-60
2023/09/08 00:40:13;;;;;;;6.07;5.47;;;20.70;59.30;;;22.37;46.16;97839.41;5025534;28;20041;-60
2023/09/08 00:42:41;;;;;;;7.78;6.38;;;20.80;59.10;;;22.35;46.32;97841.53;5020584;28;20049;-60
2023/09/08 00:45:09;;;;;;;5.63;5.03;;;20.80;59.10;;;22.33;45.96;97833.66;5021236;28;20428;-61
2023/09/08 00:47:37;;;;;;;8.27;4.82;;;20.70;59.10;;;22.30;46.12;97839.53;5018593;28;20053;-60
2023/09/08 00:50:06;;;;;;;6.82;5.68;;;20.60;59.20;;;22.28;46.29;97838.94;5023850;28;20060;-60
2023/09/08 00:52:34;;;;;;;6.47;5.88;;;20.70;59.30;;;22.26;46.29;97837.53;5002714;28;20052;-60
2023/09/08 00:55:01;;;;;;;6.28;5.03;;;20.70;59.30;;;22.26;46.49;97840.22;5056578;27;20056;-60
2023/09/08 00:57:29;;;;;;;8.60;5.70;;;20.70;59.30;;;22.23;46.46;97828.72;5021111;28;20501;-60
2023/09/08 00:59:58;;;;;;;6.43;5.63;;;20.60;59.10;;;22.21;45.99;97830.84;5019248;28;20493;-60
2023/09/08 01:02:26;;;;;;;6.70;5.20;;;20.60;59.10;;;22.19;46.13;97827.53;5020187;28;20392;-60
2023/09/08 01:04:53;;;;;;;5.88;5.28;;;20.60;59.20;;;22.20;46.38;97829.22;5020291;28;20042;-60
2023/09/08 01:07:21;;;;;;;6.93;5.25;;;20.60;59.30;;;22.18;46.14;97831.31;5019662;28;20041;-60
2023/09/08 01:09:50;;;;;;;6.38;5.13;;;20.60;59.10;;;22.20;46.31;97828.41;5038913;28;20524;-60
2023/09/08 01:12:19;;;;;;;6.45;5.05;;;20.60;58.80;;;22.21;46.36;97832.75;5020316;28;20060;-60
2023/09/08 01:14:47;;;;;;;6.80;5.25;;;20.60;58.80;;;22.17;46.14;97826.94;5032550;28;20421;-60
2023/09/08 01:17:15;;;;;;;6.85;5.18;;;20.60;59.00;;;22.14;46.08;97827.44;5028822;27;20045;-60
2023/09/08 01:19:46;;;;;;;8.32;6.07;;;20.60;59.30;;;22.11;46.32;97833.31;5018874;28;20050;-60
2023/09/08 01:22:28;;;;;;;6.60;5.90;;;20.50;59.50;;;22.11;46.16;97827.88;5013453;28;20057;-60
2023/09/08 01:25:24;;;;;;;7.18;5.22;;;20.60;59.20;;;22.07;46.75;97823.97;5060337;28;20048;-60
2023/09/08 01:27:58;;;;;;;8.38;6.30;;;20.60;59.70;;;22.08;46.79;97824.78;5007492;28;20049;-60
2023/09/08 01:30:32;;;;;;;6.38;5.75;;;20.70;59.40;;;22.08;46.65;97824.78;5019423;28;20523;-60
2023/09/08 01:33:01;;;;;;;9.02;5.53;;;20.60;59.20;;;22.09;46.41;97834.59;5020488;28;20045;-60
2023/09/08 01:35:29;;;;;;;8.65;5.63;;;20.70;59.20;;;22.09;46.76;97837.31;5053473;28;20421;-60
2023/09/08 01:37:59;;;;;;;7.43;5.85;;;20.60;58.90;;;22.08;46.51;97830.22;5015944;28;20049;-60
2023/09/08 01:40:27;;;;;;;6.65;5.32;;;20.60;58.90;;;22.07;46.21;97826.69;5027437;28;20131;-60
2023/09/08 01:42:54;;;;;;;6.60;5.53;;;20.60;58.80;;;22.06;46.13;97813.34;5018361;28;20054;-60
2023/09/08 01:45:23;;;;;;;6.55;5.40;;;20.60;58.90;;;22.05;46.36;97820.66;5012197;28;20057;-60
2023/09/08 01:47:50;;;;;;;6.70;5.90;;;20.60;59.00;;;22.05;46.42;97823.38;5025333;28;20068;-60
2023/09/08 01:50:22;;;;;;;8.95;5.10;;;20.60;58.70;;;22.00;46.69;97815.09;5015830;28;20398;-60
2023/09/08 01:52:49;;;;;;;6.38;5.13;;;20.60;58.90;;;22.01;46.63;97816.78;5016476;28;20049;-61
2023/09/08 01:55:17;;;;;;;6.95;5.45;;;20.60;58.80;;;21.96;46.50;97817.44;5020124;28;20048;-61
2023/09/08 01:57:46;;;;;;;8.18;5.03;;;20.40;59.30;;;21.92;46.68;97820.84;5027464;28;20046;-61
2023/09/08 02:00:14;;;;;;;6.43;5.28;;;20.40;59.60;;;21.90;46.79;97821.09;5021980;28;20057;-61
2023/09/08 02:02:42;;;;;;;6.65;5.60;;;20.40;59.70;;;21.88;46.81;97822.38;5019745;28;20057;-61
2023/09/08 02:05:10;;;;;;;6.70;5.40;;;20.30;59.80;;;21.87;47.01;97820.72;5018202;28;20052;-60
2023/09/08 02:07:37;;;;;;;6.80;5.30;;;20.30;59.80;;;21.85;46.62;97826.38;4999177;28;20417;-60
2023/09/08 02:10:06;;;;;;;6.88;5.43;;;20.40;59.70;;;21.83;47.03;97815.75;5010875;28;20041;-60
2023/09/08 02:12:34;;;;;;;6.57;5.32;;;20.30;59.70;;;21.83;46.62;97820.38;5019619;28;20567;-60
2023/09/08 02:15:01;;;;;;;5.90;5.18;;;20.40;59.60;;;21.80;46.81;97818.09;5015577;28;20049;-60
2023/09/08 02:17:29;;;;;;;7.22;5.63;;;20.30;59.90;;;21.78;46.93;97825.63;5031837;28;20384;-60
2023/09/08 02:19:57;;;;;;;11.13;5.50;;;20.30;60.20;;;21.78;46.71;97817.50;5017779;28;20038;-61
2023/09/08 02:22:25;;;;;;;7.13;5.93;;;20.20;60.30;;;21.73;47.01;97820.06;5035475;28;20053;-60
2023/09/08 02:24:53;;;;;;;6.07;4.75;;;20.00;60.90;;;21.72;47.18;97821.94;5016584;28;20041;-61
2023/09/08 02:27:21;;;;;;;6.18;5.32;;;20.00;60.70;;;21.71;47.07;97814.03;5022443;28;20046;-60
2023/09/08 02:29:50;;;;;;;8.15;5.60;;;20.10;60.90;;;21.68;47.44;97819.94;5017591;28;20042;-60
2023/09/08 02:32:18;;;;;;;7.50;6.25;;;20.00;61.30;;;21.66;47.00;97814.75;5028336;28;20263;-60
2023/09/08 02:34:48;;;;;;;7.85;5.75;;;19.90;61.40;;;21.61;47.48;97825.44;5016585;28;20052;-60
2023/09/08 02:37:15;;;;;;;6.57;5.80;;;19.80;61.50;;;21.54;47.29;97816.53;5031520;28;20050;-60
2023/09/08 02:39:43;;;;;;;7.97;6.43;;;19.70;62.20;;;21.46;47.33;97816.88;5031743;28;20436;-60
2023/09/08 02:42:11;;;;;;;5.88;5.25;;;19.60;62.60;;;21.39;47.46;97815.03;5026323;28;20057;-60
2023/09/08 02:44:39;;;;;;;8.25;6.07;;;19.50;63.00;;;21.32;47.54;97817.00;5036385;27;20041;-61
2023/09/08 02:47:07;;;;;;;9.85;5.65;;;19.40;63.50;;;21.27;47.95;97813.28;5026366;28;20048;-60
2023/09/08 02:49:37;;;;;;;7.35;6.07;;;19.40;63.70;;;21.21;47.90;97820.47;5002683;28;20045;-60
2023/09/08 02:52:05;;;;;;;6.15;5.55;;;19.30;63.90;;;21.16;48.11;97815.72;5041078;28;20038;-60
2023/09/08 02:54:32;;;;;;;7.60;5.78;;;19.30;64.10;;;21.11;48.24;97812.03;5011354;28;20050;-60
2023/09/08 02:57:00;;;;;;;7.30;5.85;;;19.20;64.10;;;21.03;48.47;97811.28;5005219;28;20520;-61
2023/09/08 02:59:27;;;;;;;7.00;6.25;;;19.20;64.60;;;20.98;48.12;97813.00;5037177;28;20420;-60
2023/09/08 03:01:55;;;;;;;6.13;5.40;;;19.10;64.80;;;20.95;48.83;97814.25;5021135;28;20522;-60
2023/09/08 03:04:24;;;;;;;8.15;6.80;;;19.10;65.20;;;20.90;49.01;97808.72;5017922;28;20509;-60
2023/09/08 03:06:53;;;;;;;7.03;6.07;;;19.00;65.50;;;20.91;49.03;97806.81;5020546;28;20038;-60
2023/09/08 03:09:21;;;;;;;7.78;6.20;;;19.10;65.50;;;20.87;48.94;97811.03;5038852;27;20061;-61
2023/09/08 03:11:48;;;;;;;6.32;5.50;;;19.00;65.40;;;20.84;48.67;97807.72;5021706;28;20046;-60
2023/09/08 03:14:16;;;;;;;6.63;5.88;;;19.00;65.40;;;20.81;49.23;97818.97;5035257;27;20050;-61
2023/09/08 03:16:43;;;;;;;7.15;6.25;;;18.90;66.50;;;20.78;48.99;97810.47;5019187;28;20042;-61
2023/09/08 03:19:11;;;;;;;7.45;6.38;;;18.90;65.60;;;20.74;49.07;97807.38;5022963;28;20492;-60
2023/09/08 03:21:39;;;;;;;8.23;6.78;;;18.90;66.30;;;20.71;49.48;97804.31;5022641;28;20053;-60
2023/09/08 03:24:06;;;;;;;9.35;6.07;;;18.80;66.50;;;20.68;49.55;97810.16;5018957;28;20050;-61
2023/09/08 03:26:34;;;;;;;8.48;7.22;;;18.80;66.50;;;20.63;49.53;97808.97;5027298;28;20068;-61
2023/09/08 03:29:02;;;;;;;9.85;7.07;;;18.70;66.70;;;20.61;49.54;97810.25;5021153;28;20062;-60
2023/09/08 03:31:32;;;;;;;6.63;5.85;;;18.70;67.00;;;20.57;49.54;97808.97;5023942;28;20054;-61
2023/09/08 03:34:00;;;;;;;8.82;6.28;;;18.70;67.30;;;20.53;49.82;97814.00;5014451;28;20298;-61
2023/09/08 03:36:28;;;;;;;10.02;5.85;;;18.70;67.40;;;20.51;49.56;97817.97;5034432;28;20041;-60
2023/09/08 03:38:58;;;;;;;8.73;6.20;;;18.60;67.20;;;20.47;49.88;97814.88;5035553;28;20053;-61
2023/09/08 03:41:25;;;;;;;7.30;5.82;;;18.60;67.10;;;20.45;50.03;97809.72;5029153;28;20042;-60
2023/09/08 03:43:53;;;;;;;8.65;6.40;;;18.60;67.30;;;20.43;50.07;97819.06;5027576;28;20053;-61
2023/09/08 03:46:21;;;;;;;11.63;7.10;;;18.60;67.10;;;20.39;49.82;97813.28;5028953;27;20045;-60
2023/09/08 03:48:48;;;;;;;7.63;6.13;;;18.60;67.40;;;20.36;50.12;97810.19;5020543;28;20052;-60
2023/09/08 03:51:16;;;;;;;12.88;6.78;;;18.50;67.60;;;20.33;50.20;97814.16;5018536;28;20042;-60
2023/09/08 03:53:44;;;;;;;8.30;6.47;;;18.50;67.80;;;20.30;50.31;97814.63;5012221;28;20450;-60
2023/09/08 03:56:12;;;;;;;8.68;6.65;;;18.40;68.30;;;20.26;50.57;97805.28;5016879;28;20053;-60
2023/09/08 03:58:40;;;;;;;9.80;7.40;;;18.40;68.80;;;20.24;50.53;97813.59;5027990;28;20037;-60
2023/09/08 04:01:07;;;;;;;8.05;6.03;;;18.40;68.90;;;20.24;50.79;97815.50;5020557;28;20058;-60
2023/09/08 04:03:35;;;;;;;7.20;5.80;;;18.40;68.70;;;20.24;50.78;97818.19;5019730;28;20052;-60
2023/09/08 04:06:05;;;;;;;8.93;6.18;;;18.50;68.60;;;20.21;50.63;97824.84;5026432;28;20106;-61
2023/09/08 04:08:33;;;;;;;8.48;6.30;;;18.40;68.50;;;20.20;50.72;97825.06;5025907;28;20386;-61
2023/09/08 04:11:00;;;;;;;12.95;6.85;;;18.40;68.70;;;20.17;50.71;97828.22;5019745;28;20049;-60
2023/09/08 04:13:28;;;;;;;8.00;6.75;;;18.30;69.30;;;20.12;50.96;97820.75;5020889;28;20484;-60
2023/09/08 04:15:55;;;;;;;8.27;7.22;;;18.20;70.10;;;20.06;51.16;97824.31;5020446;28;20045;-60
2023/09/08 04:18:23;;;;;;;8.00;6.32;;;18.20;70.60;;;20.03;51.71;97833.69;5005953;28;20046;-60
2023/09/08 04:20:51;;;;;;;9.45;6.32;;;18.10;71.00;;;20.01;51.57;97821.47;5019471;28;20417;-60
2023/09/08 04:23:19;;;;;;;9.77;7.68;;;18.10;70.90;;;19.97;51.81;97818.38;5021238;28;20436;-60
2023/09/08 04:25:46;;;;;;;8.52;6.85;;;18.10;71.00;;;19.96;51.93;97818.56;5021954;28;20049;-61
2023/09/08 04:28:14;;;;;;;8.38;6.40;;;18.20;70.80;;;19.97;51.82;97822.94;5018164;28;20052;-60
2023/09/08 04:30:42;;;;;;;11.45;6.70;;;18.20;70.50;;;19.97;51.85;97818.38;5017011;28;20041;-60
2023/09/08 04:33:09;;;;;;;9.65;7.63;;;18.30;70.40;;;19.99;51.85;97820.84;5026531;28;20052;-61
2023/09/08 04:35:37;;;;;;;8.52;6.78;;;18.30;70.10;;;19.99;51.65;97820.84;5020687;28;20053;-60
2023/09/08 04:38:05;;;;;;;10.40;6.75;;;18.30;69.80;;;20.00;51.69;97836.81;5054384;27;20050;-60
2023/09/08 04:40:33;;;;;;;7.63;6.35;;;18.30;69.70;;;20.00;51.51;97822.50;5023621;28;20038;-60
2023/09/08 04:43:00;;;;;;;9.60;6.35;;;18.30;69.80;;;19.97;51.59;97829.16;5018931;28;20049;-60
2023/09/08 04:45:28;;;;;;;7.60;6.10;;;18.30;70.10;;;19.99;51.79;97826.25;5003931;28;20046;-60
2023/09/08 04:47:56;;;;;;;11.13;6.13;;;18.30;69.80;;;19.96;51.67;97830.19;5018677;28;20044;-60
2023/09/08 04:50:23;;;;;;;7.95;6.32;;;18.30;70.00;;;19.95;51.74;97830.41;5025882;27;20386;-61
2023/09/08 04:52:51;;;;;;;7.82;6.28;;;18.30;70.00;;;19.93;52.02;97825.25;5025396;28;20494;-60
2023/09/08 04:55:19;;;;;;;7.45;6.50;;;18.30;70.10;;;19.92;51.76;97825.47;5019096;28;20390;-60
2023/09/08 04:57:47;;;;;;;12.05;6.10;;;18.30;70.30;;;19.89;52.01;97833.97;5029345;27;20041;-60
2023/09/08 05:00:16;;;;;;;8.57;6.32;;;18.20;70.50;;;19.90;51.97;97822.97;5018224;28;20053;-60
2023/09/08 05:02:44;;;;;;;9.32;6.53;;;18.20;70.20;;;19.89;52.17;97821.31;5016188;28;20042;-60
2023/09/08 05:05:12;;;;;;;9.10;7.28;;;18.20;70.10;;;19.90;51.98;97827.56;5033604;28;20045;-61
2023/09/08 05:07:41;;;;;;;7.57;6.03;;;18.30;70.00;;;19.86;52.17;97829.84;5019207;28;20504;-60
2023/09/08 05:10:09;;;;;;;7.57;6.45;;;18.30;70.20;;;19.88;52.09;97832.34;5018166;28;20527;-61
2023/09/08 05:12:38;;;;;;;6.63;5.85;;;18.30;69.90;;;19.85;52.21;97833.59;5031918;28;20052;-61
2023/09/08 05:15:10;;;;;;;10.57;6.25;;;18.30;70.10;;;19.89;52.09;97844.78;5018377;28;20042;-61
2023/09/08 05:17:40;;;;;;;8.48;6.32;;;18.30;70.00;;;19.87;52.04;97842.31;5020673;28;20033;-61
2023/09/08 05:20:09;;;;;;;8.02;6.32;;;18.20;70.30;;;19.88;51.95;97837.75;5033984;28;20053;-61
2023/09/08 05:22:37;;;;;;;8.32;7.05;;;18.20;70.30;;;19.90;52.22;97843.75;5016854;28;20045;-62
2023/09/08 05:25:06;;;;;;;8.43;6.00;;;18.20;70.70;;;19.89;52.27;97848.34;5017445;28;20056;-62
2023/09/08 05:27:34;;;;;;;8.48;6.13;;;18.20;70.70;;;19.88;52.14;97846.66;5035429;28;20060;-61
2023/09/08 05:30:04;;;;;;;9.10;6.70;;;18.10;71.20;;;19.88;52.28;97846.66;5019701;28;20292;-61
2023/09/08 05:32:33;;;;;;;11.55;8.50;;;18.10;71.40;;;19.88;52.34;97849.38;5015862;28;20489;-61
2023/09/08 05:35:01;;;;;;;7.57;6.18;;;18.10;71.70;;;19.88;52.46;97851.25;5007056;28;20420;-61
2023/09/08 05:37:28;;;;;;;9.57;6.32;;;18.10;71.60;;;19.90;52.27;97849.16;5012480;28;20045;-61
2023/09/08 05:39:56;;;;;;;10.00;6.97;;;18.20;71.30;;;19.91;52.20;97848.97;5020160;28;20041;-61
2023/09/08 05:42:24;;;;;;;8.20;6.68;;;18.20;71.20;;;19.95;52.58;97852.88;5015193;28;20587;-61
2023/09/08 05:44:54;;;;;;;9.43;6.97;;;18.30;71.10;;;19.93;52.46;97852.28;5017554;28;20042;-61
2023/09/08 05:47:22;;;;;;;8.55;6.63;;;18.20;71.40;;;19.97;52.65;97856.19;5035073;28;20041;-61
2023/09/08 05:49:50;;;;;;;9.73;6.68;;;18.30;71.00;;;20.01;52.82;97853.88;5018462;28;20049;-61
2023/09/08 05:52:19;;;;;;;8.32;6.78;;;18.40;71.30;;;20.01;52.50;97854.72;5016825;28;20060;-60
2023/09/08 05:54:48;;;;;;;14.10;7.30;;;18.30;71.60;;;20.03;52.90;97852.63;5025119;28;20041;-60
2023/09/08 05:57:15;;;;;;;10.07;6.80;;;18.40;71.30;;;20.06;52.70;97854.91;5017425;28;20041;-60
2023/09/08 05:59:43;;;;;;;9.18;6.60;;;18.40;71.40;;;20.10;52.74;97854.44;5019434;28;20053;-61
2023/09/08 06:02:11;;;;;;;8.95;7.18;;;18.50;71.40;;;20.12;52.78;97855.06;5017453;28;20045;-61
2023/09/08 06:04:39;;;;;;;8.80;6.93;;;18.50;71.50;;;20.16;53.10;97858.97;5013985;28;20501;-61
2023/09/08 06:07:07;;;;;;;7.65;6.68;;;18.60;71.10;;;20.21;53.04;97859.97;5015777;28;20057;-61
2023/09/08 06:09:35;;;;;;;8.65;7.47;;;18.70;71.00;;;20.25;53.01;97853.09;5034026;28;20447;-61
2023/09/08 06:12:04;;;;;;;9.93;7.13;;;18.80;71.00;;;20.31;53.12;97853.28;5018738;28;20049;-61
2023/09/08 06:14:32;;;;;;;9.93;7.20;;;18.70;70.90;;;20.35;52.92;97847.19;4999990;28;20540;-61
2023/09/08 06:16:59;;;;;;;8.45;6.00;;;18.80;70.60;;;20.41;52.66;97851.75;5023958;28;20504;-61
2023/09/08 06:19:27;;;;;;;9.80;6.93;;;18.90;70.50;;;20.45;52.82;97852.13;4990550;28;20056;-61
2023/09/08 06:21:55;;;;;;;13.55;6.45;;;19.00;70.40;;;20.48;53.01;97851.69;5030871;28;20046;-61
2023/09/08 06:24:23;;;;;;;11.52;6.50;;;19.00;70.20;;;20.54;52.89;97848.09;5033798;28;20524;-61
2023/09/08 06:26:50;;;;;;;8.38;6.75;;;19.20;70.20;;;20.60;52.91;97851.84;5019510;28;20042;-60
2023/09/08 06:29:19;;;;;;;8.93;5.90;;;19.20;70.00;;;20.64;53.17;97851.16;5019733;28;20057;-61
2023/09/08 06:31:49;;;;;;;11.27;7.07;;;19.30;70.30;;;20.70;53.15;97849.47;5018028;28;20414;-61
2023/09/08 06:34:20;;;;;;;12.00;6.88;;;19.30;70.90;;;20.75;53.64;97846.94;5030527;28;20528;-61
2023/09/08 06:36:49;;;;;;;7.53;6.03;;;19.30;71.60;;;20.81;53.36;97851.44;5023770;27;20045;-61
2023/09/08 06:39:17;;;;;;;10.77;7.47;;;19.40;71.80;;;20.85;53.55;97851.84;5028599;28;20050;-62
2023/09/08 06:41:44;;;;;;;8.07;7.05;;;19.40;72.00;;;20.89;53.68;97854.94;5023907;28;20488;-62
2023/09/08 06:44:15;;;;;;;8.68;6.53;;;19.40;72.10;;;20.91;53.78;97856.34;5028561;28;20046;-62
2023/09/08 06:46:43;;;;;;;9.00;7.10;;;19.50;72.20;;;20.95;53.42;97867.56;5049715;28;20448;-62
2023/09/08 06:49:10;;;;;;;8.85;7.68;;;19.50;72.00;;;20.97;53.77;97860.06;5018140;28;20122;-63
2023/09/08 06:51:38;;;;;;;13.13;8.52;;;19.50;72.00;;;21.00;53.74;97863.16;5020468;28;20055;-63
2023/09/08 06:54:06;;;;;;;10.23;7.47;;;19.60;71.80;;;21.01;53.96;97859.41;5019765;28;20526;-61
2023/09/08 06:56:39;;;;;;;12.60;8.85;;;19.60;71.60;;;21.06;53.70;97857.91;5023788;28;20060;-62
2023/09/08 06:59:08;;;;;;;13.27;7.72;;;19.70;71.60;;;21.09;53.62;97862.84;5055171;28;20455;-61
2023/09/08 07:01:36;;;;;;;9.57;7.40;;;19.70;71.50;;;21.12;53.42;97862.41;5022933;28;20046;-60
2023/09/08 07:04:05;;;;;;;11.43;8.00;;;19.70;71.70;;;21.14;53.59;97866.53;5019053;28;20077;-61
2023/09/08 07:06:35;;;;;;;11.55;8.48;;;19.70;71.20;;;21.18;53.39;97872.34;5032963;28;20034;-61
2023/09/08 07:09:02;;;;;;;8.65;6.82;;;19.80;71.20;;;21.21;53.67;97863.78;5018364;28;20037;-61
2023/09/08 07:11:31;;;;;;;10.82;7.72;;;19.80;71.00;;;21.24;53.17;97869.56;5027004;28;20052;-61
2023/09/08 07:13:59;;;;;;;10.30;7.70;;;19.90;70.70;;;21.28;53.44;97869.13;5025534;28;20049;-60
2023/09/08 07:16:27;;;;;;;10.77;6.93;;;19.90;70.70;;;21.31;53.06;97868.69;5115144;27;20045;-61
2023/09/08 07:18:55;;;;;;;11.75;7.50;;;19.90;70.80;;;21.34;53.15;97868.22;5021956;28;20531;-61
2023/09/08 07:21:22;;;;;;;10.15;6.82;;;19.90;70.70;;;21.38;53.21;97874.84;5027985;28;20060;-61
2023/09/08 07:23:51;;;;;;;10.07;7.60;;;20.00;70.70;;;21.41;53.45;97875.22;5018317;28;20400;-61
2023/09/08 07:26:19;;;;;;;9.98;7.45;;;20.00;70.60;;;21.43;53.22;97867.72;5033040;28;20060;-61
2023/09/08 07:28:48;;;;;;;9.73;7.03;;;20.10;70.60;;;21.46;53.47;97873.75;5020486;28;20046;-61
2023/09/08 07:31:16;;;;;;;9.02;7.35;;;20.20;70.50;;;21.50;53.49;97866.81;5027590;28;20076;-61
2023/09/08 07:33:47;;;;;;;9.35;6.50;;;20.30;70.60;;;21.56;53.33;97868.66;5006478;28;20042;-59
2023/09/08 07:36:15;;;;;;;10.60;8.40;;;20.30;70.30;;;21.63;53.47;97874.78;5114190;27;20049;-61
2023/09/08 07:38:44;;;;;;;12.48;7.38;;;20.40;70.20;;;21.68;53.52;97874.13;5020531;28;20046;-64
2023/09/08 07:41:12;;;;;;;7.50;6.70;;;20.40;70.10;;;21.72;53.23;97869.91;5019845;28;20049;-64
2023/09/08 07:43:40;;;;;;;9.45;7.25;;;20.50;69.90;;;21.76;53.22;97863.78;5020587;28;20053;-62
2023/09/08 07:46:10;;;;;;;7.70;6.60;;;20.50;69.80;;;21.81;53.42;97865.84;5019980;28;20050;-61
2023/09/08 07:48:38;;;;;;;8.98;7.28;;;20.60;69.90;;;21.87;53.51;97873.06;5020272;28;20041;-64
2023/09/08 07:51:06;;;;;;;9.90;7.65;;;20.70;69.90;;;21.91;53.57;97866.13;5021703;28;20052;-64
2023/09/08 07:53:34;;;;;;;9.57;8.43;;;20.70;69.90;;;21.95;53.74;97870.00;5017769;28;20053;-65
2023/09/08 07:56:01;;;;;;;10.55;8.07;;;20.80;70.20;;;22.00;53.46;97864.75;5033619;28;20053;-65
2023/09/08 07:58:29;;;;;;;14.15;7.90;;;20.80;70.10;;;22.06;53.17;97870.28;5020933;28;20102;-64
2023/09/08 08:00:57;;;;;;;9.38;7.55;;;20.90;70.00;;;22.11;53.30;97879.38;5037016;28;20512;-65
2023/09/08 08:03:24;;;;;;;10.27;8.55;;;20.90;69.90;;;22.14;53.51;97870.81;5019350;28;20045;-65
2023/09/08 08:05:52;;;;;;;12.23;8.38;;;21.00;70.00;;;22.20;53.36;97869.88;5017200;28;20049;-64
2023/09/08 08:08:20;;;;;;;13.77;8.57;;;21.00;69.90;;;22.25;53.61;97871.09;5017779;28;20054;-64
2023/09/08 08:10:47;;;;;;;12.35;9.80;;;21.10;70.10;;;22.29;53.87;97875.81;5021619;28;20052;-64
2023/09/08 08:13:15;;;;;;;12.60;10.32;;;21.10;70.20;;;22.33;53.77;97871.63;5020976;27;20064;-64
2023/09/08 08:15:45;;;;;;;12.98;9.57;;;21.10;70.80;;;22.38;53.82;97870.91;5018296;28;20046;-64
2023/09/08 08:18:13;;;;;;;10.52;8.23;;;21.20;70.80;;;22.45;53.74;97871.66;5017330;28;20050;-64
2023/09/08 08:20:41;;;;;;;12.95;9.10;;;21.20;71.00;;;22.48;54.06;97879.31;5021562;28;20046;-64
2023/09/08 08:23:09;;;;;;;13.13;10.85;;;21.30;70.70;;;22.53;53.92;97871.31;5027782;28;20046;-64
2023/09/08 08:25:36;;;;;;;12.90;9.10;;;21.40;70.50;;;22.57;53.60;97872.50;5016841;28;20053;-64
2023/09/08 08:28:04;;;;;;;11.70;10.00;;;21.40;70.30;;;22.60;53.85;97865.75;5017850;28;20054;-64
2023/09/08 08:30:32;;;;;;;10.60;9.23;;;21.40;70.60;;;22.64;53.67;97872.38;5036000;28;20053;-65
2023/09/08 08:33:00;;;;;;;10.48;8.85;;;21.50;70.50;;;22.69;53.81;97872.50;5021244;28;20439;-65
2023/09/08 08:35:28;;;;;;;12.73;9.55;;;21.50;70.70;;;22.76;53.59;97872.38;5027150;28;20053;-65
2023/09/08 08:37:59;;;;;;;15.30;9.43;;;21.60;70.50;;;22.79;53.89;97864.59;5017934;28;20038;-65
2023/09/08 08:40:28;;;;;;;12.63;8.88;;;21.60;70.60;;;22.85;53.63;97867.44;5010713;28;20508;-65
2023/09/08 08:42:57;;;;;;;10.68;8.70;;;21.70;70.60;;;22.89;53.67;97866.72;5021428;28;20033;-65
2023/09/08 08:45:29;;;;;;;10.45;9.40;;;21.70;70.40;;;22.95;53.86;97871.25;5019315;28;20549;-65
2023/09/08 08:47:58;;;;;;;10.18;8.15;;;21.80;70.40;;;22.99;53.59;97868.88;5016422;28;20064;-65
2023/09/08 08:50:26;;;;;;;10.48;9.23;;;21.80;70.80;;;23.04;53.48;97869.03;5017911;28;20045;-65
2023/09/08 08:52:54;;;;;;;11.77;9.75;;;21.90;70.30;;;23.09;53.72;97869.16;5019115;28;20052;-65
2023/09/08 08:55:25;;;;;;;12.73;8.75;;;21.90;70.40;;;23.16;53.51;97861.69;5018513;28;20393;-65
2023/09/08 08:57:54;;;;;;;10.65;8.35;;;22.00;70.10;;;23.21;53.54;97865.63;5004960;28;20037;-66
2023/09/08 09:00:22;;;;;;;8.75;7.85;;;22.10;69.80;;;23.25;53.38;97856.75;5019040;28;20041;-65
2023/09/08 09:02:51;;;;;;;10.18;8.43;;;22.10;69.70;;;23.31;53.28;97855.78;5018799;28;20041;-65
2023/09/08 09:05:40;;;;;;;13.55;9.13;;;22.10;69.90;;;23.39;53.33;97860.84;5017443;28;20052;-66
2023/09/08 09:08:12;;;;;;;14.55;9.27;;;22.20;69.70;;;23.44;53.37;97852.00;5015804;28;20501;-65
2023/09/08 09:10:39;;;;;;;12.55;8.60;;;22.30;69.80;;;23.51;53.10;97862.72;5019544;28;20056;-65
2023/09/08 09:13:07;;;;;;;13.10;9.80;;;22.40;69.30;;;23.54;53.17;97860.34;5020029;28;20049;-65
2023/09/08 09:15:34;;;;;;;10.32;8.20;;;22.40;69.30;;;23.60;53.13;97853.13;5016614;28;20045;-65
2023/09/08 09:18:07;;;;;;;13.80;9.80;;;22.50;69.20;;;23.65;52.99;97864.13;5016933;28;20046;-65
2023/09/08 09:20:35;;;;;;;10.07;8.52;;;22.50;69.00;;;23.70;52.86;97866.09;5018136;28;20049;-65
2023/09/08 09:23:03;;;;;;;25.30;10.07;;;22.50;69.10;;;23.76;52.89;97865.97;5018544;28;20523;-65
2023/09/08 09:25:32;;;;;;;11.27;8.73;;;22.60;69.10;;;23.81;52.76;97869.88;5032911;28;20060;-65
2023/09/08 09:28:02;;;;;;;10.43;7.50;;;22.70;68.90;;;23.86;53.02;97873.53;5016531;28;20064;-65
2023/09/08 09:30:48;;;;;;;11.98;8.80;;;22.70;69.10;;;23.91;52.70;97867.38;5016897;28;20056;-64
2023/09/08 09:33:17;;;;;;;9.25;8.30;;;22.80;68.60;;;23.98;52.38;97862.59;5018313;28;20037;-64
2023/09/08 09:35:47;;;;;;;10.77;8.45;;;22.90;68.20;;;24.04;52.44;97863.53;5014204;28;20038;-64
2023/09/08 09:38:16;;;;;;;11.20;7.53;;;22.90;67.90;;;24.09;52.60;97866.34;5034624;28;20038;-64
2023/09/08 09:40:45;;;;;;;13.38;8.82;;;23.00;67.80;;;24.12;52.25;97871.31;5016344;28;20048;-64
2023/09/08 09:43:20;;;;;;;11.63;8.77;;;23.00;67.70;;;24.16;52.28;97867.03;5015006;28;20049;-64
2023/09/08 09:45:48;;;;;;;12.23;8.82;;;23.10;67.50;;;24.22;52.13;97871.50;5017082;28;20416;-64
2023/09/08 09:48:18;;;;;;;10.88;9.57;;;23.10;67.10;;;24.22;51.58;97867.97;5015111;28;20046;-64
2023/09/08 09:50:46;;;;;;;10.35;8.88;;;23.20;67.00;;;24.23;51.50;97867.69;5015490;28;20042;-64
2023/09/08 09:53:16;;;;;;;12.60;9.27;;;23.20;66.20;;;24.24;51.72;97858.50;5015856;28;20053;-64
2023/09/08 09:55:45;;;;;;;12.52;9.13;;;23.20;66.30;;;24.30;51.87;97862.13;5019132;28;20045;-64
2023/09/08 09:58:14;;;;;;;11.13;8.63;;;23.20;66.30;;;24.36;51.69;97864.69;5018231;28;20057;-64
2023/09/08 10:00:47;;;;;;;11.25;8.90;;;23.30;66.70;;;24.46;51.43;97863.22;5015506;28;20046;-64
2023/09/08 10:03:16;;;;;;;11.75;8.40;;;23.30;66.50;;;24.51;51.30;97857.91;5014711;28;20046;-63
2023/09/08 10:05:47;;;;;;;8.77;7.90;;;23.40;66.10;;;24.57;51.25;97848.75;5017478;28;20038;-64
2023/09/08 10:08:14;;;;;;;11.25;8.27;;;23.50;66.30;;;24.64;51.28;97848.56;5018405;28;20057;-63
2023/09/08 10:10:45;;;;;;;12.30;8.10;;;23.50;66.50;;;24.65;51.19;97851.06;5016659;28;20046;-64
2023/09/08 10:13:16;;;;;;;11.65;7.90;;;23.60;66.00;;;24.70;51.37;97853.06;5014452;28;20398;-65
2023/09/08 10:15:46;;;;;;;10.55;8.18;;;23.60;65.90;;;24.76;51.52;97854.78;5017888;28;20048;-66
2023/09/08 10:18:19;;;;;;;11.07;8.27;;;23.70;66.20;;;24.81;51.52;97854.84;5017958;28;20057;-65
2023/09/08 10:20:49;;;;;;;14.52;7.78;;;23.80;66.00;;;24.88;51.08;97854.69;5016978;28;20046;-64
2023/09/08 10:23:31;;;;;;;12.10;8.00;;;23.80;65.80;;;24.93;51.05;97849.31;5014341;28;20046;-65